Time;durP1;ratioP1;P1;durP2;ratioP2;P2;SDS_P1;SDS_P2;PMS_P1;PMS_P2;Temp;Humidity;BMP_temperature;BMP_pressure;BME280_temperature;BME280_humidity;BME280_pressure;Samples;Min_cycle;Max_cycle;Signal;HPM_P1;HPM_P2
2022/11/26 00:00:28;;;;;;;34.53;17.25;;;5.50;93.30;;;;;;4991738;28;20135;-74
2022/11/26 00:02:54;;;;;;;31.10;18.15;;;5.60;93.50;;;;;;4984670;28;20043;-73
2022/11/26 00:05:21;;;;;;;29.58;15.43;;;5.60;93.40;;;;;;4986116;28;20045;-78
2022/11/26 00:07:58;;;;;;;32.30;16.45;;;5.60;93.40;;;;;;4984237;28;20039;-77
2022/11/26 00:10:27;;;;;;;32.08;15.93;;;5.60;93.40;;;;;;4982140;28;20478;-74
2022/11/26 00:12:54;;;;;;;32.38;16.73;;;5.60;93.40;;;;;;4985662;28;20058;-75
2022/11/26 00:15:23;;;;;;;38.05;15.80;;;5.60;93.40;;;;;;4987382;28;20089;-74
2022/11/26 00:17:50;;;;;;;28.85;16.92;;;5.70;93.50;;;;;;4989826;28;20582;-75
2022/11/26 00:20:17;;;;;;;28.40;14.25;;;5.70;93.50;;;;;;4984372;28;20042;-79
2022/11/26 00:22:47;;;;;;;30.35;16.20;;;5.70;93.50;;;;;;4996292;28;20057;-80
2022/11/26 00:25:15;;;;;;;25.67;15.00;;;5.70;93.40;;;;;;4980001;28;20034;-76
2022/11/26 00:27:41;;;;;;;35.35;16.77;;;5.60;93.40;;;;;;4989378;28;20038;-74
2022/11/26 00:30:15;;;;;;;33.05;15.95;;;5.60;93.50;;;;;;4990061;28;20026;-74
2022/11/26 00:32:40;;;;;;;35.75;16.42;;;5.70;93.60;;;;;;4987573;28;20030;-76
2022/11/26 00:35:06;;;;;;;35.75;17.90;;;5.70;93.60;;;;;;4981453;28;20034;-75
2022/11/26 00:37:55;;;;;;;33.05;18.00;;;5.70;93.70;;;;;;4991687;28;20555;-74
2022/11/26 00:40:23;;;;;;;32.75;17.77;;;5.70;93.70;;;;;;4992074;28;20047;-75
2022/11/26 00:42:50;;;;;;;33.50;17.42;;;5.70;93.70;;;;;;4987501;28;20364;-76
2022/11/26 00:45:21;;;;;;;32.13;16.00;;;5.70;93.70;;;;;;4991584;28;20035;-78
2022/11/26 00:47:48;;;;;;;36.70;17.02;;;5.70;93.70;;;;;;4985339;28;20034;-73
2022/11/26 00:50:20;;;;;;;31.85;16.48;;;5.70;93.70;;;;;;4998853;28;20026;-76
2022/11/26 00:52:47;;;;;;;32.60;16.52;;;5.70;93.70;;;;;;4987362;28;20033;-81
2022/11/26 00:55:38;;;;;;;33.92;16.95;;;5.70;93.70;;;;;;4988601;28;20080;-75
2022/11/26 00:58:06;;;;;;;29.42;16.05;;;5.70;93.80;;;;;;4985459;28;20053;-74
2022/11/26 01:00:33;;;;;;;36.80;17.60;;;5.70;93.80;;;;;;4984237;28;20096;-73
2022/11/26 01:03:00;;;;;;;33.20;15.80;;;5.70;93.80;;;;;;5003680;28;20120;-78
2022/11/26 01:05:29;;;;;;;34.13;16.77;;;5.70;93.80;;;;;;4993119;28;20066;-72
2022/11/26 01:07:59;;;;;;;29.15;16.63;;;5.70;93.80;;;;;;4996555;28;20062;-75
2022/11/26 01:10:27;;;;;;;37.75;17.83;;;5.70;93.90;;;;;;4998570;28;20423;-75
2022/11/26 01:12:53;;;;;;;36.53;16.90;;;5.70;93.80;;;;;;4992771;28;20111;-73
2022/11/26 01:15:21;;;;;;;34.00;16.08;;;5.70;93.90;;;;;;4993799;28;20113;-74
2022/11/26 01:17:47;;;;;;;31.38;16.00;;;5.70;93.90;;;;;;4987791;28;21008;-75
2022/11/26 01:20:29;;;;;;;33.67;14.63;;;5.70;94.00;;;;;;4988774;28;20141;-77
2022/11/26 01:22:56;;;;;;;28.05;14.80;;;5.80;94.00;;;;;;4995489;28;20047;-73
2022/11/26 01:25:24;;;;;;;39.50;15.05;;;5.80;94.00;;;;;;4994387;28;20035;-75
2022/11/26 01:27:50;;;;;;;32.05;14.13;;;5.80;94.00;;;;;;4992904;28;20026;-77
2022/11/26 01:30:18;;;;;;;31.27;14.55;;;5.80;94.00;;;;;;4992350;28;20045;-78
2022/11/26 01:32:44;;;;;;;31.05;14.85;;;5.80;93.90;;;;;;4983801;28;20486;-73
2022/11/26 01:35:11;;;;;;;33.15;14.05;;;5.80;93.90;;;;;;4989334;28;20037;-73
2022/11/26 01:37:36;;;;;;;30.20;13.23;;;5.80;93.80;;;;;;4993359;28;20410;-74
2022/11/26 01:40:03;;;;;;;46.60;16.75;;;5.80;93.80;;;;;;4992486;28;20073;-78
2022/11/26 01:42:43;;;;;;;32.70;13.32;;;5.80;93.90;;;;;;4990786;28;20142;-74
2022/11/26 01:45:27;;;;;;;37.20;14.20;;;5.80;93.90;;;;;;4994455;28;20104;-74
2022/11/26 01:47:53;;;;;;;28.27;14.15;;;5.80;93.90;;;;;;4988213;28;20121;-73
2022/11/26 01:50:27;;;;;;;35.42;13.82;;;5.80;93.90;;;;;;4985810;28;20113;-73
2022/11/26 01:53:13;;;;;;;;;;;5.80;93.90;;;;;;4995594;28;20127;-74
2022/11/26 01:55:46;;;;;;;29.10;12.13;;;5.80;93.90;;;;;;4994527;28;19910;-74
2022/11/26 01:58:18;;;;;;;34.97;14.10;;;5.80;93.90;;;;;;4987779;28;20033;-73
2022/11/26 02:00:45;;;;;;;38.13;14.85;;;5.80;93.90;;;;;;4983171;28;20022;-73
2022/11/26 02:03:11;;;;;;;33.03;12.95;;;5.80;93.90;;;;;;4989816;28;20042;-75
2022/11/26 02:05:50;;;;;;;29.88;13.43;;;5.70;93.90;;;;;;4999635;28;20161;-75
2022/11/26 02:08:17;;;;;;;30.88;13.73;;;5.80;93.90;;;;;;4986763;28;20069;-75
2022/11/26 02:10:43;;;;;;;27.10;13.13;;;5.70;93.80;;;;;;4991246;28;20030;-77
2022/11/26 02:13:09;;;;;;;28.52;13.68;;;5.80;93.90;;;;;;4991257;28;20041;-76
2022/11/26 02:15:52;;;;;;;32.22;14.13;;;5.80;93.80;;;;;;4988790;28;20457;-76
2022/11/26 02:18:19;;;;;;;30.95;12.68;;;5.70;93.80;;;;;;4994179;28;20046;-76
2022/11/26 02:20:58;;;;;;;29.13;12.30;;;5.70;93.80;;;;;;4989562;28;20042;-73
2022/11/26 02:23:57;;;;;;;27.88;12.40;;;5.70;93.80;;;;;;4979889;28;20279;-78
2022/11/26 02:26:43;;;;;;;28.48;12.02;;;5.70;93.90;;;;;;4995058;28;20046;-74
2022/11/26 02:29:24;;;;;;;23.77;12.13;;;5.70;93.80;;;;;;4982498;28;20069;-76
2022/11/26 02:32:07;;;;;;;26.63;12.93;;;5.70;93.90;;;;;;4986749;28;20360;-75
2022/11/26 02:34:36;;;;;;;31.92;12.75;;;5.60;93.80;;;;;;4989085;28;20034;-73
2022/11/26 02:37:09;;;;;;;26.85;12.43;;;5.70;93.90;;;;;;4988645;28;20092;-73
2022/11/26 02:39:35;;;;;;;27.25;12.13;;;5.70;93.90;;;;;;4994571;28;20109;-73
2022/11/26 02:42:03;;;;;;;28.60;12.55;;;5.60;93.80;;;;;;4988985;28;20129;-75
2022/11/26 02:44:34;;;;;;;29.35;13.30;;;5.60;93.90;;;;;;4988105;28;20039;-77
2022/11/26 02:47:09;;;;;;;29.27;13.13;;;5.60;93.90;;;;;;4990142;28;20034;-73
2022/11/26 02:49:38;;;;;;;36.65;13.93;;;5.60;93.90;;;;;;4984728;28;20061;-74
2022/11/26 02:52:06;;;;;;;27.90;12.35;;;5.60;93.80;;;;;;4993127;28;20053;-74
2022/11/26 02:54:33;;;;;;;28.05;11.73;;;5.60;93.90;;;;;;4988337;28;20033;-74
2022/11/26 02:57:02;;;;;;;30.90;11.88;;;5.60;93.90;;;;;;4990798;28;20065;-73
2022/11/26 02:59:31;;;;;;;32.28;11.18;;;5.60;93.90;;;;;;4987961;28;20042;-78
2022/11/26 03:02:08;;;;;;;25.42;12.13;;;5.60;93.90;;;;;;4989926;28;20374;-76
2022/11/26 03:04:39;;;;;;;25.38;12.50;;;5.60;93.90;;;;;;4990400;28;20416;-73
2022/11/26 03:07:07;;;;;;;32.05;12.13;;;5.60;93.90;;;;;;4993049;28;20043;-73
2022/11/26 03:09:48;;;;;;;31.73;12.32;;;5.60;94.00;;;;;;4992780;28;20033;-73
2022/11/26 03:12:14;;;;;;;30.05;11.40;;;5.60;93.90;;;;;;4993718;28;20045;-75
2022/11/26 03:14:40;;;;;;;30.50;12.05;;;5.50;93.90;;;;;;4995462;28;20046;-73
2022/11/26 03:17:05;;;;;;;27.90;11.13;;;5.50;93.90;;;;;;4991746;28;20469;-74
2022/11/26 03:19:31;;;;;;;28.95;11.52;;;5.50;94.00;;;;;;4989433;28;20049;-73
2022/11/26 03:21:57;;;;;;;26.75;11.55;;;5.50;94.00;;;;;;4986541;28;20111;-78
2022/11/26 03:24:22;;;;;;;25.92;10.77;;;5.60;94.10;;;;;;4988719;28;20389;-76
2022/11/26 03:26:48;;;;;;;32.13;12.00;;;5.60;94.10;;;;;;4988208;28;20339;-73
2022/11/26 03:29:14;;;;;;;31.58;11.00;;;5.60;94.10;;;;;;4988458;28;20061;-74
2022/11/26 03:31:39;;;;;;;25.48;11.10;;;5.60;94.00;;;;;;4983793;28;20034;-73
2022/11/26 03:34:05;;;;;;;31.90;11.35;;;5.60;94.10;;;;;;4988199;28;20451;-73
2022/11/26 03:36:31;;;;;;;31.05;11.65;;;5.60;94.00;;;;;;4987594;28;20180;-74
2022/11/26 03:38:57;;;;;;;29.80;11.38;;;5.60;94.10;;;;;;4987636;28;20038;-73
2022/11/26 03:41:22;;;;;;;29.15;11.20;;;5.50;94.10;;;;;;4991907;28;20395;-75
2022/11/26 03:43:48;;;;;;;26.15;11.18;;;5.60;94.10;;;;;;4986787;28;20074;-73
2022/11/26 03:46:14;;;;;;;32.10;11.05;;;5.60;94.20;;;;;;4986200;28;20034;-74
2022/11/26 03:48:39;;;;;;;32.55;10.88;;;5.60;94.20;;;;;;4983002;28;20134;-74
2022/11/26 03:51:05;;;;;;;27.08;11.32;;;5.60;94.20;;;;;;4984695;28;20304;-73
2022/11/26 03:53:31;;;;;;;31.13;11.73;;;5.60;94.30;;;;;;4985616;28;20546;-78
2022/11/26 03:55:57;;;;;;;26.60;11.00;;;5.60;94.20;;;;;;4986549;28;20026;-80
2022/11/26 03:58:22;;;;;;;24.70;10.68;;;5.60;94.20;;;;;;4989660;28;20038;-74
2022/11/26 04:00:48;;;;;;;29.65;11.10;;;5.60;94.20;;;;;;4987416;28;20065;-73
2022/11/26 04:03:14;;;;;;;33.63;11.10;;;5.60;94.20;;;;;;4988676;28;20159;-72
2022/11/26 04:05:40;;;;;;;29.08;11.07;;;5.60;94.20;;;;;;4990201;28;20061;-73
2022/11/26 04:08:06;;;;;;;31.10;12.00;;;5.60;94.20;;;;;;4990978;28;20054;-74
2022/11/26 04:10:32;;;;;;;33.30;11.70;;;5.60;94.30;;;;;;4993232;28;20739;-76
2022/11/26 04:12:57;;;;;;;25.90;11.40;;;5.60;94.30;;;;;;4999634;28;20613;-75
2022/11/26 04:15:23;;;;;;;29.73;11.23;;;5.60;94.30;;;;;;4989484;28;20076;-75
2022/11/26 04:17:49;;;;;;;29.73;10.75;;;5.60;94.20;;;;;;4989302;28;20113;-74
2022/11/26 04:20:15;;;;;;;33.55;11.45;;;5.60;94.20;;;;;;4996486;28;20139;-74
2022/11/26 04:22:40;;;;;;;29.40;12.05;;;5.60;94.20;;;;;;4991910;28;20038;-76
2022/11/26 04:25:06;;;;;;;28.30;10.75;;;5.60;94.20;;;;;;4995014;28;20066;-73
2022/11/26 04:27:32;;;;;;;27.23;10.90;;;5.60;94.20;;;;;;4992759;28;20030;-75
2022/11/26 04:29:57;;;;;;;26.60;10.77;;;5.60;94.20;;;;;;4992660;28;20038;-75
2022/11/26 04:32:23;;;;;;;29.20;10.60;;;5.60;94.20;;;;;;4997685;28;20107;-75
2022/11/26 04:34:49;;;;;;;29.58;11.05;;;5.60;94.10;;;;;;5000338;28;20038;-75
2022/11/26 04:37:14;;;;;;;31.98;10.90;;;5.60;94.20;;;;;;4995243;28;20479;-74
2022/11/26 04:39:40;;;;;;;33.10;10.65;;;5.60;94.20;;;;;;4992863;28;20034;-76
2022/11/26 04:42:05;;;;;;;27.45;11.07;;;5.60;94.20;;;;;;4996061;28;20438;-76
2022/11/26 04:44:31;;;;;;;24.08;10.00;;;5.60;94.20;;;;;;4999770;28;20449;-74
2022/11/26 04:46:57;;;;;;;29.42;9.82;;;5.60;94.30;;;;;;4988863;28;20034;-80
2022/11/26 04:49:23;;;;;;;30.45;10.05;;;5.60;94.30;;;;;;4987922;28;20393;-75
2022/11/26 04:51:48;;;;;;;29.45;9.98;;;5.60;94.30;;;;;;4999106;28;20455;-74
2022/11/26 04:54:14;;;;;;;24.02;9.00;;;5.60;94.30;;;;;;4993395;28;20038;-75
2022/11/26 04:56:39;;;;;;;27.58;10.02;;;5.70;94.30;;;;;;4988358;28;20497;-75
2022/11/26 04:59:05;;;;;;;28.30;9.50;;;5.70;94.30;;;;;;4987393;28;20038;-76
2022/11/26 05:01:31;;;;;;;28.30;10.32;;;5.70;94.30;;;;;;4988463;28;20529;-77
2022/11/26 05:03:56;;;;;;;42.60;10.98;;;5.70;94.30;;;;;;4992880;28;20048;-73
2022/11/26 05:06:22;;;;;;;29.50;9.85;;;5.80;94.30;;;;;;4988625;28;20027;-77
2022/11/26 05:08:48;;;;;;;31.85;10.10;;;5.70;94.20;;;;;;4990021;28;20030;-75
2022/11/26 05:11:13;;;;;;;34.53;11.63;;;5.70;94.20;;;;;;4985907;28;21269;-77
2022/11/26 05:13:39;;;;;;;31.70;10.50;;;5.70;94.20;;;;;;4989607;28;20038;-74
2022/11/26 05:16:05;;;;;;;26.95;9.98;;;5.70;94.20;;;;;;4987943;28;20039;-76
2022/11/26 05:18:30;;;;;;;32.20;10.00;;;5.80;94.20;;;;;;4987237;28;20081;-74
2022/11/26 05:20:56;;;;;;;27.70;9.55;;;5.80;94.20;;;;;;4984867;28;20050;-74
2022/11/26 05:23:22;;;;;;;27.98;8.88;;;5.80;94.20;;;;;;4987862;28;20065;-75
2022/11/26 05:25:49;;;;;;;27.58;10.05;;;5.80;94.10;;;;;;4990973;28;20348;-73
2022/11/26 05:28:15;;;;;;;32.78;9.63;;;5.80;94.20;;;;;;4988468;28;20111;-76
2022/11/26 05:30:41;;;;;;;25.50;9.65;;;5.80;94.10;;;;;;4985018;28;20038;-74
2022/11/26 05:33:06;;;;;;;34.38;10.10;;;5.80;94.10;;;;;;4992489;28;20042;-75
2022/11/26 05:35:32;;;;;;;28.48;9.68;;;5.80;94.10;;;;;;4995579;28;20031;-74
2022/11/26 05:37:58;;;;;;;35.75;10.70;;;5.80;94.20;;;;;;4988990;28;20039;-75
2022/11/26 05:40:23;;;;;;;28.42;10.32;;;5.70;94.20;;;;;;4988166;28;20471;-74
2022/11/26 05:42:49;;;;;;;33.50;10.55;;;5.70;94.10;;;;;;4992192;28;20420;-75
2022/11/26 05:45:15;;;;;;;33.63;10.57;;;5.80;94.20;;;;;;4989115;28;20459;-74
2022/11/26 05:47:41;;;;;;;36.45;10.10;;;5.80;94.30;;;;;;4993685;28;20378;-75
2022/11/26 05:50:07;;;;;;;31.25;9.80;;;5.80;94.30;;;;;;4985898;28;20118;-74
2022/11/26 05:52:33;;;;;;;28.67;9.65;;;5.80;94.30;;;;;;4994209;28;20034;-74
2022/11/26 05:54:59;;;;;;;28.45;10.20;;;5.90;94.30;;;;;;4994744;28;20026;-74
2022/11/26 05:57:24;;;;;;;27.27;10.48;;;5.90;94.30;;;;;;4990377;28;20042;-77
2022/11/26 05:59:50;;;;;;;28.33;10.35;;;5.90;94.30;;;;;;4987446;28;20121;-76
2022/11/26 06:02:16;;;;;;;32.88;9.63;;;5.90;94.20;;;;;;4989849;28;20042;-74
2022/11/26 06:04:42;;;;;;;27.40;10.23;;;5.90;94.20;;;;;;4986569;28;20030;-74
2022/11/26 06:07:08;;;;;;;28.02;9.55;;;6.00;94.20;;;;;;4989485;28;20137;-76
2022/11/26 06:09:34;;;;;;;31.20;10.50;;;5.90;94.10;;;;;;4991405;28;20030;-74
2022/11/26 06:12:00;;;;;;;31.27;10.05;;;5.90;94.20;;;;;;4986381;28;20494;-74
2022/11/26 06:14:26;;;;;;;28.42;10.13;;;5.90;94.20;;;;;;4987722;28;20263;-74
2022/11/26 06:16:51;;;;;;;29.52;10.15;;;5.90;94.10;;;;;;4985910;28;20498;-73
2022/11/26 06:19:17;;;;;;;27.10;9.43;;;5.90;94.20;;;;;;4993098;28;20739;-75
2022/11/26 06:21:43;;;;;;;31.95;10.70;;;5.90;94.20;;;;;;4989166;28;20113;-77
2022/11/26 06:24:09;;;;;;;32.63;10.18;;;5.90;94.20;;;;;;4987454;28;20125;-74
2022/11/26 06:26:34;;;;;;;35.67;11.57;;;5.90;94.20;;;;;;4990174;28;20458;-74
2022/11/26 06:29:00;;;;;;;33.67;11.02;;;5.90;94.20;;;;;;4986772;28;20029;-74
2022/11/26 06:31:26;;;;;;;30.83;10.40;;;5.90;94.20;;;;;;4989082;28;20034;-74
2022/11/26 06:33:55;;;;;;;31.33;10.05;;;5.90;94.20;;;;;;4986324;28;20044;-75
2022/11/26 06:36:21;;;;;;;28.83;10.60;;;5.80;94.20;;;;;;4988078;28;20046;-74
2022/11/26 06:38:47;;;;;;;33.35;10.90;;;5.90;94.20;;;;;;4987386;28;20040;-75
2022/11/26 06:41:13;;;;;;;32.47;11.30;;;5.90;94.20;;;;;;4996406;28;20046;-79
2022/11/26 06:43:38;;;;;;;32.83;11.27;;;5.90;94.20;;;;;;4994124;28;20128;-75
2022/11/26 06:46:07;;;;;;;32.70;10.38;;;5.90;94.20;;;;;;4993681;28;20042;-75
2022/11/26 06:48:33;;;;;;;32.28;10.60;;;6.00;94.30;;;;;;4984184;28;20058;-74
2022/11/26 06:51:04;;;;;;;34.15;10.75;;;5.90;94.20;;;;;;4990208;28;20095;-74
2022/11/26 06:53:29;;;;;;;36.13;10.70;;;5.90;94.20;;;;;;4986550;28;20126;-76
2022/11/26 06:55:59;;;;;;;35.10;11.13;;;6.00;94.30;;;;;;4990795;28;20113;-75
2022/11/26 06:58:25;;;;;;;31.58;11.13;;;6.00;94.20;;;;;;4987047;28;20034;-75
2022/11/26 07:00:51;;;;;;;33.80;10.65;;;6.00;94.30;;;;;;4990349;28;20092;-74
2022/11/26 07:03:17;;;;;;;39.78;11.93;;;6.10;94.30;;;;;;4986178;28;20050;-78
2022/11/26 07:05:42;;;;;;;38.35;11.35;;;6.10;94.30;;;;;;4990938;28;20073;-74
2022/11/26 07:08:08;;;;;;;34.53;11.85;;;6.10;94.20;;;;;;4989618;28;20080;-77
2022/11/26 07:10:33;;;;;;;35.60;11.93;;;6.10;94.20;;;;;;4987958;28;20030;-75
2022/11/26 07:12:59;;;;;;;35.08;11.93;;;6.20;94.20;;;;;;4985993;28;20113;-74
2022/11/26 07:15:26;;;;;;;37.33;11.50;;;6.10;94.10;;;;;;4989831;28;20467;-74
2022/11/26 07:17:51;;;;;;;34.72;11.23;;;6.20;94.10;;;;;;4989546;28;20030;-74
2022/11/26 07:20:17;;;;;;;43.35;13.23;;;6.20;94.10;;;;;;4988300;28;20049;-74
2022/11/26 07:22:43;;;;;;;33.05;13.07;;;6.20;94.00;;;;;;4979055;28;20451;-78
2022/11/26 07:25:09;;;;;;;32.58;12.63;;;6.20;94.00;;;;;;4992870;28;20047;-75
2022/11/26 07:27:34;;;;;;;32.38;10.73;;;6.20;94.00;;;;;;4983746;28;20455;-74
2022/11/26 07:30:00;;;;;;;35.10;11.20;;;6.30;93.90;;;;;;4984434;28;20034;-75
2022/11/26 07:32:26;;;;;;;30.63;12.32;;;6.20;94.00;;;;;;4993168;28;20068;-74
2022/11/26 07:34:51;;;;;;;41.80;12.30;;;6.40;93.90;;;;;;4983798;28;20030;-75
2022/11/26 07:37:17;;;;;;;29.70;12.40;;;6.40;93.90;;;;;;4984181;28;20076;-77
2022/11/26 07:39:42;;;;;;;38.42;12.13;;;6.30;93.90;;;;;;4985564;28;20073;-77
2022/11/26 07:42:08;;;;;;;30.35;11.70;;;6.40;93.90;;;;;;4982714;28;20035;-74
2022/11/26 07:44:34;;;;;;;28.02;11.88;;;6.40;93.80;;;;;;4984253;28;20490;-74
2022/11/26 07:47:00;;;;;;;32.28;13.35;;;6.40;93.80;;;;;;4996692;28;20026;-76
2022/11/26 07:49:26;;;;;;;38.63;12.93;;;6.50;93.80;;;;;;4983274;28;20030;-74
2022/11/26 07:51:52;;;;;;;40.40;14.57;;;6.60;93.70;;;;;;4977764;28;20282;-74
2022/11/26 07:54:17;;;;;;;36.15;12.90;;;6.50;93.70;;;;;;4983062;28;20510;-76
2022/11/26 07:56:43;;;;;;;35.88;14.25;;;6.50;93.70;;;;;;4992099;28;20549;-79
2022/11/26 07:59:10;;;;;;;35.88;13.65;;;6.60;93.70;;;;;;4985447;28;20027;-75
2022/11/26 08:01:35;;;;;;;35.38;14.57;;;6.60;93.70;;;;;;4983675;28;20041;-74
2022/11/26 08:04:04;;;;;;;34.38;13.65;;;6.60;93.60;;;;;;4982483;28;20034;-76
2022/11/26 08:06:30;;;;;;;38.95;14.20;;;6.60;93.60;;;;;;4984491;28;20065;-75
2022/11/26 08:08:58;;;;;;;34.70;14.40;;;6.60;93.60;;;;;;4983577;28;20035;-76
2022/11/26 08:11:26;;;;;;;39.67;14.05;;;6.70;93.50;;;;;;4988399;28;20742;-78
2022/11/26 08:13:54;;;;;;;37.13;14.38;;;6.70;93.40;;;;;;4991395;28;20366;-74
2022/11/26 08:16:20;;;;;;;39.30;14.60;;;6.80;93.40;;;;;;4980520;28;20118;-76
2022/11/26 08:18:45;;;;;;;40.38;15.20;;;6.70;93.40;;;;;;4979670;28;20501;-74
2022/11/26 08:21:11;;;;;;;42.33;14.60;;;6.80;93.40;;;;;;4976316;28;20149;-74
2022/11/26 08:23:37;;;;;;;38.58;15.18;;;6.80;93.30;;;;;;4969910;28;20035;-74
2022/11/26 08:26:10;;;;;;;33.10;13.60;;;6.90;93.20;;;;;;4974869;28;20526;-74
2022/11/26 08:28:36;;;;;;;38.95;16.20;;;6.90;93.20;;;;;;4974316;28;20048;-77
2022/11/26 08:31:04;;;;;;;36.40;14.98;;;6.90;93.20;;;;;;4990102;28;20073;-77
2022/11/26 08:33:30;;;;;;;42.88;15.35;;;7.00;93.10;;;;;;4978525;28;20035;-76
2022/11/26 08:35:56;;;;;;;41.30;15.10;;;7.00;93.00;;;;;;4986464;28;20026;-77
2022/11/26 08:38:22;;;;;;;31.48;15.45;;;7.10;93.00;;;;;;4975605;28;20368;-78
2022/11/26 08:40:47;;;;;;;34.88;15.40;;;7.10;92.90;;;;;;4985135;28;20037;-74
2022/11/26 08:43:13;;;;;;;36.13;13.73;;;7.10;92.80;;;;;;4982772;28;20042;-77
2022/11/26 08:45:39;;;;;;;35.20;14.98;;;7.10;92.70;;;;;;4985408;28;20037;-74
2022/11/26 08:48:05;;;;;;;38.47;15.27;;;7.10;92.70;;;;;;4982918;28;20030;-75
2022/11/26 08:50:32;;;;;;;36.00;14.23;;;7.10;92.80;;;;;;4984247;28;20034;-75
2022/11/26 08:52:57;;;;;;;28.58;13.73;;;7.10;92.80;;;;;;4986191;28;20122;-75
2022/11/26 08:55:23;;;;;;;38.55;14.00;;;7.10;92.80;;;;;;4979573;28;20595;-77
2022/11/26 08:57:49;;;;;;;32.63;13.75;;;7.20;92.80;;;;;;4983899;28;20026;-74
2022/11/26 09:00:15;;;;;;;36.70;14.15;;;7.20;92.80;;;;;;4987498;28;20062;-78
2022/11/26 09:02:41;;;;;;;36.83;13.98;;;7.20;92.70;;;;;;4981305;28;20130;-74
2022/11/26 09:05:07;;;;;;;30.52;14.50;;;7.20;92.70;;;;;;4982196;28;20109;-76
2022/11/26 09:07:32;;;;;;;28.30;14.73;;;7.30;92.70;;;;;;4983329;28;20439;-74
2022/11/26 09:09:58;;;;;;;33.65;14.07;;;7.30;92.60;;;;;;4982316;28;20113;-76
2022/11/26 09:12:23;;;;;;;34.30;14.32;;;7.40;92.50;;;;;;4980173;28;20062;-75
2022/11/26 09:14:49;;;;;;;34.67;13.75;;;7.50;92.40;;;;;;4981478;28;20030;-74
2022/11/26 09:17:14;;;;;;;32.53;12.88;;;7.50;92.20;;;;;;4977316;28;20042;-76
2022/11/26 09:19:40;;;;;;;27.48;11.45;;;7.50;92.30;;;;;;4980447;28;20077;-73
2022/11/26 09:22:06;;;;;;;31.30;12.52;;;7.60;92.30;;;;;;4979262;28;20058;-75
2022/11/26 09:24:32;;;;;;;35.15;12.13;;;7.60;92.20;;;;;;4976608;28;20156;-74
2022/11/26 09:26:57;;;;;;;43.40;14.35;;;7.70;92.10;;;;;;4976924;28;20027;-77
2022/11/26 09:29:23;;;;;;;28.52;13.77;;;7.80;91.90;;;;;;4981844;28;20046;-76
2022/11/26 09:31:49;;;;;;;34.63;14.43;;;7.90;91.60;;;;;;4986073;28;20537;-77
2022/11/26 09:34:16;;;;;;;33.38;14.90;;;8.10;91.60;;;;;;4974004;28;20039;-75
2022/11/26 09:36:41;;;;;;;34.05;12.40;;;8.10;91.40;;;;;;4982103;28;20030;-75
2022/11/26 09:39:07;;;;;;;32.67;11.52;;;8.10;91.10;;;;;;4981059;28;20570;-76
2022/11/26 09:41:42;;;;;;;27.20;11.77;;;8.20;91.00;;;;;;4986871;28;20038;-74
2022/11/26 09:44:26;;;;;;;32.33;12.35;;;8.30;90.80;;;;;;4980190;28;20042;-74
2022/11/26 09:47:10;;;;;;;25.98;10.80;;;8.40;90.60;;;;;;4981342;28;20479;-75
2022/11/26 09:49:43;;;;;;;32.63;16.60;;;8.50;90.50;;;;;;4973678;28;20439;-75
2022/11/26 09:52:12;;;;;;;35.08;17.33;;;8.60;90.30;;;;;;4984073;28;20756;-75
2022/11/26 09:54:39;;;;;;;28.98;12.30;;;8.70;89.90;;;;;;4988629;28;20474;-75
2022/11/26 09:57:22;;;;;;;33.75;19.45;;;8.90;90.00;;;;;;4986204;28;20760;-76
2022/11/26 09:59:50;;;;;;;31.85;16.95;;;9.00;89.40;;;;;;4989338;28;20447;-77
2022/11/26 10:02:16;;;;;;;34.45;16.38;;;9.10;89.00;;;;;;4988752;28;20065;-77
2022/11/26 10:04:42;;;;;;;27.88;12.45;;;9.20;88.60;;;;;;4988117;28;20448;-76
2022/11/26 10:07:30;;;;;;;31.65;12.57;;;9.20;88.20;;;;;;4977357;28;20125;-76
2022/11/26 10:10:23;;;;;;;29.50;11.82;;;9.30;88.10;;;;;;4982614;28;20085;-76
2022/11/26 10:13:12;;;;;;;25.30;9.52;;;9.30;87.70;;;;;;4986846;28;20240;-78
2022/11/26 10:15:58;;;;;;;24.50;9.43;;;9.30;87.80;;;;;;4979444;28;20035;-76
2022/11/26 10:18:33;;;;;;;23.00;11.20;;;9.30;87.70;;;;;;4979059;28;20053;-80
2022/11/26 10:21:32;;;;;;;24.90;12.02;;;9.30;87.90;;;;;;4991124;28;20045;-75
2022/11/26 10:24:21;;;;;;;25.73;14.43;;;9.40;87.90;;;;;;4972501;28;20046;-78
2022/11/26 10:26:48;;;;;;;24.23;11.65;;;9.40;87.90;;;;;;4993700;28;20042;-80
2022/11/26 10:29:23;;;;;;;22.05;9.55;;;9.40;87.90;;;;;;4976669;28;20084;-78
2022/11/26 10:31:53;;;;;;;26.35;10.73;;;9.40;87.80;;;;;;4981917;28;20038;-79
2022/11/26 10:34:50;;;;;;;21.33;9.93;;;9.50;88.00;;;;;;4977608;28;20057;-76
2022/11/26 10:37:18;;;;;;;25.42;10.32;;;9.60;87.60;;;;;;4985006;28;20335;-79
2022/11/26 10:39:43;;;;;;;24.83;11.95;;;9.60;87.70;;;;;;4997256;28;20034;-78
2022/11/26 10:42:16;;;;;;;32.47;15.95;;;9.60;87.80;;;;;;4993565;28;20144;-82
2022/11/26 10:44:42;;;;;;;34.05;18.08;;;9.70;87.70;;;;;;4981975;28;20358;-78
2022/11/26 10:47:20;;;;;;;35.03;19.80;;;9.70;87.60;;;;;;4980748;28;20035;-78
2022/11/26 10:49:46;;;;;;;22.60;12.30;;;9.80;87.40;;;;;;4985521;28;20034;-75
2022/11/26 10:52:16;;;;;;;25.40;10.27;;;9.80;87.20;;;;;;4978355;28;20057;-75
2022/11/26 10:54:43;;;;;;;20.08;9.52;;;9.90;87.10;;;;;;4979591;28;20391;-79
2022/11/26 10:57:09;;;;;;;20.33;9.45;;;9.80;87.10;;;;;;4979041;28;20038;-77
2022/11/26 10:59:52;;;;;;;17.17;8.85;;;9.80;87.20;;;;;;4981222;28;20383;-75
2022/11/26 11:02:31;;;;;;;21.33;9.00;;;9.80;87.40;;;;;;4979541;28;20042;-76
2022/11/26 11:05:00;;;;;;;21.98;9.38;;;9.90;87.30;;;;;;4976521;28;20050;-77
2022/11/26 11:07:37;;;;;;;23.88;9.68;;;10.00;87.40;;;;;;4987062;28;20165;-76
2022/11/26 11:10:08;;;;;;;21.67;8.82;;;10.10;87.10;;;;;;4991744;28;20042;-77
2022/11/26 11:12:38;;;;;;;20.77;9.48;;;10.10;87.10;;;;;;4979360;28;20034;-76
2022/11/26 11:15:21;;;;;;;18.55;8.70;;;10.40;86.90;;;;;;4980473;28;20073;-78
2022/11/26 11:18:02;;;;;;;21.33;8.43;;;10.60;86.90;;;;;;4980037;28;20121;-78
2022/11/26 11:20:33;;;;;;;20.80;8.50;;;10.80;86.10;;;;;;4980479;28;20046;-75
2022/11/26 11:23:09;;;;;;;23.95;9.00;;;10.80;85.30;;;;;;4978737;28;20503;-76
2022/11/26 11:25:39;;;;;;;16.67;8.23;;;10.90;84.90;;;;;;4980885;28;20161;-77
2022/11/26 11:28:24;;;;;;;18.60;8.05;;;10.90;84.60;;;;;;4980952;28;20034;-78
2022/11/26 11:31:04;;;;;;;20.75;7.40;;;11.00;84.90;;;;;;4997297;28;20483;-76
2022/11/26 11:33:30;;;;;;;18.02;7.47;;;11.00;84.60;;;;;;4979769;28;20464;-76
2022/11/26 11:36:26;;;;;;;17.63;7.88;;;11.10;84.10;;;;;;4978112;28;20030;-77
2022/11/26 11:38:58;;;;;;;22.50;8.55;;;11.00;84.10;;;;;;4975149;28;20026;-76
2022/11/26 11:41:46;;;;;;;20.15;9.75;;;11.00;84.30;;;;;;4977957;28;20054;-76
2022/11/26 11:44:23;;;;;;;25.75;9.88;;;11.10;84.40;;;;;;4992239;28;20038;-74
2022/11/26 11:47:04;;;;;;;23.60;10.05;;;11.10;84.30;;;;;;4980079;28;20046;-76
2022/11/26 11:50:07;;;;;;;33.33;15.52;;;11.10;84.10;;;;;;4980284;28;20122;-77
2022/11/26 11:52:53;;;;;;;35.17;18.00;;;10.90;84.40;;;;;;4997081;28;20130;-74
2022/11/26 11:55:44;;;;;;;50.22;33.53;;;10.70;85.00;;;;;;4997765;28;20034;-80
2022/11/26 11:58:25;;;;;;;28.75;17.25;;;10.70;85.50;;;;;;4979876;28;20462;-75
2022/11/26 12:01:30;;;;;;;70.18;43.97;;;10.60;85.80;;;;;;4980582;28;20060;-77
2022/11/26 12:04:33;;;;;;;36.42;19.13;;;10.80;86.10;;;;;;4973084;28;20046;-74
2022/11/26 12:07:33;;;;;;;27.88;12.57;;;11.00;85.30;;;;;;4981690;28;20490;-74
2022/11/26 12:10:14;;;;;;;25.98;15.15;;;11.10;85.00;;;;;;4978656;28;20175;-76
2022/11/26 12:12:53;;;;;;;28.42;18.02;;;11.20;84.70;;;;;;4988563;28;20474;-78
2022/11/26 12:15:32;;;;;;;18.75;8.70;;;11.40;84.70;;;;;;4990051;28;20057;-77
2022/11/26 12:18:41;;;;;;;22.05;9.90;;;11.40;84.10;;;;;;4972212;28;20097;-79
2022/11/26 12:21:11;;;;;;;28.88;10.70;;;11.40;84.00;;;;;;4969483;28;20070;-76
2022/11/26 12:23:48;;;;;;;19.58;8.52;;;11.40;83.80;;;;;;4980253;28;20125;-79
2022/11/26 12:26:34;;;;;;;22.92;8.68;;;11.50;83.90;;;;;;4979700;28;20112;-76
2022/11/26 12:29:31;;;;;;;22.05;8.45;;;11.50;83.10;;;;;;4976478;28;20168;-76
2022/11/26 12:32:05;;;;;;;23.92;10.35;;;11.50;83.40;;;;;;4978599;28;20120;-80
2022/11/26 12:34:37;;;;;;;19.25;8.40;;;11.60;83.30;;;;;;4981013;28;20124;-76
2022/11/26 12:37:16;;;;;;;21.98;8.73;;;11.60;82.80;;;;;;4978492;28;20566;-78
2022/11/26 12:39:43;;;;;;;18.55;7.38;;;11.60;82.80;;;;;;4981738;28;20030;-75
2022/11/26 12:42:28;;;;;;;18.85;7.25;;;11.70;82.70;;;;;;4979184;28;20073;-75
2022/11/26 12:45:02;;;;;;;18.75;6.63;;;11.70;82.60;;;;;;4977885;28;20077;-76
2022/11/26 12:47:39;;;;;;;16.80;6.18;;;11.60;82.50;;;;;;4984176;28;20040;-76
2022/11/26 12:50:22;;;;;;;20.33;7.68;;;11.60;82.20;;;;;;4983453;28;20066;-80
2022/11/26 12:53:09;;;;;;;19.80;8.10;;;11.60;82.50;;;;;;4985398;28;20121;-82